sensor_id;sensor_type;location;lat;lon;timestamp;P1;durP1;ratioP1;P2;durP2;ratioP2
78563;SDS011;67856;47.754;19.088;2023-07-13T00:02:43;4.30;;;3.90;;
78563;SDS011;67856;47.754;19.088;2023-07-13T00:05:46;4.75;;;4.25;;
78563;SDS011;67856;47.754;19.088;2023-07-13T00:08:50;5.55;;;4.10;;
78563;SDS011;67856;47.754;19.088;2023-07-13T00:11:56;4.65;;;4.00;;
78563;SDS011;67856;47.754;19.088;2023-07-13T00:15:00;4.40;;;4.00;;
78563;SDS011;67856;47.754;19.088;2023-07-13T00:18:05;4.67;;;3.80;;
78563;SDS011;67856;47.754;19.088;2023-07-13T00:21:07;4.57;;;4.18;;
78563;SDS011;67856;47.754;19.088;2023-07-13T00:24:12;4.30;;;3.90;;
78563;SDS011;67856;47.754;19.088;2023-07-13T00:27:17;4.47;;;3.95;;
78563;SDS011;67856;47.754;19.088;2023-07-13T00:30:21;4.68;;;4.18;;
78563;SDS011;67856;47.754;19.088;2023-07-13T00:33:24;6.30;;;4.30;;
78563;SDS011;67856;47.754;19.088;2023-07-13T00:36:27;4.38;;;3.88;;
78563;SDS011;67856;47.754;19.088;2023-07-13T00:39:29;4.40;;;3.90;;
78563;SDS011;67856;47.754;19.088;2023-07-13T00:42:31;4.15;;;3.75;;
78563;SDS011;67856;47.754;19.088;2023-07-13T00:46:22;4.90;;;3.88;;
78563;SDS011;67856;47.754;19.088;2023-07-13T00:49:32;4.50;;;3.93;;
78563;SDS011;67856;47.754;19.088;2023-07-13T00:52:36;4.60;;;4.00;;
78563;SDS011;67856;47.754;19.088;2023-07-13T00:55:41;4.70;;;4.00;;
78563;SDS011;67856;47.754;19.088;2023-07-13T00:58:44;4.93;;;4.15;;
78563;SDS011;67856;47.754;19.088;2023-07-13T01:01:47;5.60;;;4.20;;
78563;SDS011;67856;47.754;19.088;2023-07-13T01:04:50;4.30;;;3.80;;
78563;SDS011;67856;47.754;19.088;2023-07-13T01:07:52;4.68;;;4.18;;
78563;SDS011;67856;47.754;19.088;2023-07-13T01:10:55;4.78;;;4.07;;
78563;SDS011;67856;47.754;19.088;2023-07-13T01:14:00;4.25;;;3.83;;
78563;SDS011;67856;47.754;19.088;2023-07-13T01:17:03;4.50;;;4.10;;
78563;SDS011;67856;47.754;19.088;2023-07-13T01:20:06;5.23;;;3.77;;
78563;SDS011;67856;47.754;19.088;2023-07-13T01:23:11;4.22;;;3.83;;
78563;SDS011;67856;47.754;19.088;2023-07-13T01:26:15;5.70;;;4.30;;
78563;SDS011;67856;47.754;19.088;2023-07-13T01:29:17;4.43;;;3.97;;
78563;SDS011;67856;47.754;19.088;2023-07-13T01:32:21;4.93;;;3.85;;
78563;SDS011;67856;47.754;19.088;2023-07-13T01:35:29;4.23;;;3.70;;
78563;SDS011;67856;47.754;19.088;2023-07-13T01:38:32;4.53;;;4.10;;
78563;SDS011;67856;47.754;19.088;2023-07-13T01:41:35;4.93;;;3.90;;
78563;SDS011;67856;47.754;19.088;2023-07-13T01:44:38;4.28;;;3.88;;
78563;SDS011;67856;47.754;19.088;2023-07-13T01:47:40;4.57;;;4.07;;
78563;SDS011;67856;47.754;19.088;2023-07-13T01:50:43;3.90;;;3.47;;
78563;SDS011;67856;47.754;19.088;2023-07-13T01:53:45;4.50;;;3.88;;
78563;SDS011;67856;47.754;19.088;2023-07-13T01:56:47;4.50;;;3.83;;
78563;SDS011;67856;47.754;19.088;2023-07-13T01:59:50;4.43;;;3.80;;
78563;SDS011;67856;47.754;19.088;2023-07-13T02:02:52;4.55;;;3.92;;
78563;SDS011;67856;47.754;19.088;2023-07-13T02:05:55;3.97;;;3.57;;
78563;SDS011;67856;47.754;19.088;2023-07-13T02:08:58;4.28;;;3.88;;
78563;SDS011;67856;47.754;19.088;2023-07-13T02:12:01;4.85;;;3.80;;
78563;SDS011;67856;47.754;19.088;2023-07-13T02:15:08;4.40;;;3.78;;
78563;SDS011;67856;47.754;19.088;2023-07-13T02:18:11;4.80;;;3.78;;
78563;SDS011;67856;47.754;19.088;2023-07-13T02:21:18;4.40;;;3.60;;
78563;SDS011;67856;47.754;19.088;2023-07-13T02:24:20;4.22;;;3.83;;
78563;SDS011;67856;47.754;19.088;2023-07-13T02:27:23;4.78;;;3.75;;
78563;SDS011;67856;47.754;19.088;2023-07-13T02:30:26;4.72;;;3.88;;
78563;SDS011;67856;47.754;19.088;2023-07-13T02:33:29;3.92;;;3.53;;
78563;SDS011;67856;47.754;19.088;2023-07-13T02:36:31;3.73;;;3.37;;
78563;SDS011;67856;47.754;19.088;2023-07-13T02:39:34;4.32;;;3.80;;
78563;SDS011;67856;47.754;19.088;2023-07-13T02:42:38;3.88;;;3.47;;
78563;SDS011;67856;47.754;19.088;2023-07-13T02:45:44;3.97;;;3.42;;
78563;SDS011;67856;47.754;19.088;2023-07-13T02:48:47;3.80;;;3.40;;
78563;SDS011;67856;47.754;19.088;2023-07-13T02:51:50;4.17;;;3.50;;
78563;SDS011;67856;47.754;19.088;2023-07-13T02:54:53;3.90;;;3.40;;
78563;SDS011;67856;47.754;19.088;2023-07-13T02:57:56;4.55;;;3.60;;
78563;SDS011;67856;47.754;19.088;2023-07-13T03:00:59;4.45;;;3.58;;
78563;SDS011;67856;47.754;19.088;2023-07-13T03:04:02;4.15;;;3.67;;
78563;SDS011;67856;47.754;19.088;2023-07-13T03:07:08;3.90;;;3.50;;
78563;SDS011;67856;47.754;19.088;2023-07-13T03:22:48;3.92;;;3.50;;
78563;SDS011;67856;47.754;19.088;2023-07-13T03:29:27;3.67;;;3.33;;
78563;SDS011;67856;47.754;19.088;2023-07-13T03:32:31;3.85;;;3.25;;
78563;SDS011;67856;47.754;19.088;2023-07-13T03:35:34;4.03;;;3.60;;
78563;SDS011;67856;47.754;19.088;2023-07-13T03:38:36;3.90;;;3.50;;
78563;SDS011;67856;47.754;19.088;2023-07-13T03:41:39;3.85;;;3.40;;
78563;SDS011;67856;47.754;19.088;2023-07-13T03:44:42;3.77;;;3.20;;
78563;SDS011;67856;47.754;19.088;2023-07-13T03:47:48;4.90;;;3.55;;
78563;SDS011;67856;47.754;19.088;2023-07-13T03:50:51;4.45;;;3.58;;
78563;SDS011;67856;47.754;19.088;2023-07-13T03:53:54;3.33;;;3.03;;
78563;SDS011;67856;47.754;19.088;2023-07-13T03:56:57;3.95;;;3.55;;
78563;SDS011;67856;47.754;19.088;2023-07-13T04:00:00;3.50;;;3.20;;
78563;SDS011;67856;47.754;19.088;2023-07-13T04:03:02;3.70;;;3.30;;
78563;SDS011;67856;47.754;19.088;2023-07-13T04:06:06;3.90;;;3.50;;
78563;SDS011;67856;47.754;19.088;2023-07-13T04:09:11;3.67;;;3.30;;
78563;SDS011;67856;47.754;19.088;2023-07-13T04:12:13;4.03;;;3.55;;
78563;SDS011;67856;47.754;19.088;2023-07-13T04:15:17;3.67;;;3.27;;
78563;SDS011;67856;47.754;19.088;2023-07-13T04:18:20;3.75;;;3.30;;
78563;SDS011;67856;47.754;19.088;2023-07-13T04:21:22;3.78;;;3.28;;
78563;SDS011;67856;47.754;19.088;2023-07-13T04:24:25;3.50;;;3.13;;
78563;SDS011;67856;47.754;19.088;2023-07-13T04:27:28;3.63;;;3.33;;
78563;SDS011;67856;47.754;19.088;2023-07-13T04:30:31;4.53;;;3.23;;
78563;SDS011;67856;47.754;19.088;2023-07-13T04:33:33;3.22;;;2.92;;
78563;SDS011;67856;47.754;19.088;2023-07-13T04:36:36;3.53;;;3.22;;
78563;SDS011;67856;47.754;19.088;2023-07-13T04:39:39;4.10;;;3.42;;
78563;SDS011;67856;47.754;19.088;2023-07-13T04:42:42;3.90;;;3.50;;
78563;SDS011;67856;47.754;19.088;2023-07-13T04:45:45;3.70;;;3.30;;
78563;SDS011;67856;47.754;19.088;2023-07-13T04:48:48;3.80;;;3.40;;
78563;SDS011;67856;47.754;19.088;2023-07-13T04:51:51;3.72;;;3.33;;
78563;SDS011;67856;47.754;19.088;2023-07-13T04:54:53;4.00;;;3.60;;
78563;SDS011;67856;47.754;19.088;2023-07-13T04:57:56;3.75;;;3.25;;
78563;SDS011;67856;47.754;19.088;2023-07-13T05:01:01;3.23;;;2.93;;
78563;SDS011;67856;47.754;19.088;2023-07-13T05:04:05;4.05;;;3.30;;
78563;SDS011;67856;47.754;19.088;2023-07-13T05:07:09;3.33;;;3.03;;
78563;SDS011;67856;47.754;19.088;2023-07-13T05:10:11;3.35;;;3.05;;
78563;SDS011;67856;47.754;19.088;2023-07-13T05:13:14;3.60;;;3.30;;
78563;SDS011;67856;47.754;19.088;2023-07-13T05:16:16;3.37;;;3.07;;
78563;SDS011;67856;47.754;19.088;2023-07-13T05:19:19;3.42;;;3.13;;
78563;SDS011;67856;47.754;19.088;2023-07-13T05:22:21;3.50;;;3.20;;
78563;SDS011;67856;47.754;19.088;2023-07-13T05:25:24;4.55;;;3.33;;
78563;SDS011;67856;47.754;19.088;2023-07-13T05:28:26;4.60;;;3.20;;
78563;SDS011;67856;47.754;19.088;2023-07-13T05:31:31;3.40;;;3.10;;
78563;SDS011;67856;47.754;19.088;2023-07-13T05:34:33;3.45;;;3.13;;
78563;SDS011;67856;47.754;19.088;2023-07-13T05:37:36;3.40;;;3.00;;
78563;SDS011;67856;47.754;19.088;2023-07-13T05:40:39;3.78;;;3.40;;
78563;SDS011;67856;47.754;19.088;2023-07-13T05:43:42;3.95;;;3.33;;
78563;SDS011;67856;47.754;19.088;2023-07-13T05:46:44;4.80;;;3.10;;
78563;SDS011;67856;47.754;19.088;2023-07-13T05:49:47;3.70;;;3.10;;
78563;SDS011;67856;47.754;19.088;2023-07-13T05:52:49;3.75;;;3.35;;
78563;SDS011;67856;47.754;19.088;2023-07-13T05:55:53;3.05;;;2.50;;
78563;SDS011;67856;47.754;19.088;2023-07-13T05:58:56;3.00;;;2.60;;
78563;SDS011;67856;47.754;19.088;2023-07-13T06:01:58;3.70;;;2.13;;
78563;SDS011;67856;47.754;19.088;2023-07-13T06:05:01;3.08;;;1.95;;
78563;SDS011;67856;47.754;19.088;2023-07-13T06:08:04;2.75;;;1.85;;
78563;SDS011;67856;47.754;19.088;2023-07-13T06:11:17;3.80;;;1.50;;
78563;SDS011;67856;47.754;19.088;2023-07-13T06:14:21;2.20;;;1.70;;
78563;SDS011;67856;47.754;19.088;2023-07-13T06:17:23;3.93;;;1.80;;
78563;SDS011;67856;47.754;19.088;2023-07-13T06:20:26;3.35;;;1.70;;
78563;SDS011;67856;47.754;19.088;2023-07-13T06:23:28;3.70;;;1.67;;
78563;SDS011;67856;47.754;19.088;2023-07-13T06:26:30;2.88;;;1.42;;
78563;SDS011;67856;47.754;19.088;2023-07-13T06:29:34;1.92;;;1.45;;
78563;SDS011;67856;47.754;19.088;2023-07-13T06:32:36;2.90;;;1.60;;
78563;SDS011;67856;47.754;19.088;2023-07-13T06:35:42;13.30;;;2.35;;
78563;SDS011;67856;47.754;19.088;2023-07-13T06:38:44;48.92;;;4.93;;
78563;SDS011;67856;47.754;19.088;2023-07-13T06:41:47;20.95;;;2.63;;
78563;SDS011;67856;47.754;19.088;2023-07-13T06:44:49;7.70;;;2.20;;
78563;SDS011;67856;47.754;19.088;2023-07-13T06:47:52;8.00;;;2.00;;
78563;SDS011;67856;47.754;19.088;2023-07-13T06:50:54;5.40;;;2.25;;
78563;SDS011;67856;47.754;19.088;2023-07-13T06:53:57;4.22;;;2.00;;
78563;SDS011;67856;47.754;19.088;2023-07-13T06:56:59;2.70;;;2.03;;
78563;SDS011;67856;47.754;19.088;2023-07-13T07:00:02;4.25;;;1.90;;
78563;SDS011;67856;47.754;19.088;2023-07-13T07:03:04;4.37;;;2.00;;
78563;SDS011;67856;47.754;19.088;2023-07-13T07:06:17;4.63;;;2.10;;
78563;SDS011;67856;47.754;19.088;2023-07-13T07:09:20;3.97;;;2.08;;
78563;SDS011;67856;47.754;19.088;2023-07-13T07:12:23;3.75;;;1.85;;
78563;SDS011;67856;47.754;19.088;2023-07-13T07:15:25;3.88;;;2.00;;
78563;SDS011;67856;47.754;19.088;2023-07-13T07:18:28;3.30;;;1.70;;
78563;SDS011;67856;47.754;19.088;2023-07-13T07:21:30;2.50;;;1.70;;
78563;SDS011;67856;47.754;19.088;2023-07-13T07:24:33;2.65;;;2.00;;
78563;SDS011;67856;47.754;19.088;2023-07-13T07:27:35;3.72;;;1.63;;
78563;SDS011;67856;47.754;19.088;2023-07-13T07:30:41;3.03;;;1.90;;
78563;SDS011;67856;47.754;19.088;2023-07-13T07:33:48;2.83;;;1.90;;
78563;SDS011;67856;47.754;19.088;2023-07-13T07:36:52;3.42;;;1.80;;
78563;SDS011;67856;47.754;19.088;2023-07-13T07:39:58;3.55;;;1.80;;
78563;SDS011;67856;47.754;19.088;2023-07-13T07:43:04;3.38;;;1.88;;
78563;SDS011;67856;47.754;19.088;2023-07-13T07:46:06;3.70;;;2.10;;
78563;SDS011;67856;47.754;19.088;2023-07-13T07:49:09;2.10;;;1.77;;
78563;SDS011;67856;47.754;19.088;2023-07-13T07:52:12;3.13;;;2.17;;
78563;SDS011;67856;47.754;19.088;2023-07-13T07:55:15;3.45;;;2.00;;
78563;SDS011;67856;47.754;19.088;2023-07-13T07:58:20;2.58;;;2.00;;
78563;SDS011;67856;47.754;19.088;2023-07-13T08:01:25;3.33;;;1.88;;
78563;SDS011;67856;47.754;19.088;2023-07-13T08:04:31;3.43;;;1.90;;
78563;SDS011;67856;47.754;19.088;2023-07-13T08:07:36;7.75;;;2.10;;
78563;SDS011;67856;47.754;19.088;2023-07-13T08:10:39;6.22;;;2.20;;
78563;SDS011;67856;47.754;19.088;2023-07-13T08:13:42;6.40;;;2.47;;
78563;SDS011;67856;47.754;19.088;2023-07-13T08:16:45;6.82;;;2.20;;
78563;SDS011;67856;47.754;19.088;2023-07-13T08:19:47;6.27;;;2.20;;
78563;SDS011;67856;47.754;19.088;2023-07-13T08:22:50;4.72;;;2.15;;
78563;SDS011;67856;47.754;19.088;2023-07-13T08:25:52;6.50;;;2.45;;
78563;SDS011;67856;47.754;19.088;2023-07-13T08:28:55;4.97;;;2.20;;
78563;SDS011;67856;47.754;19.088;2023-07-13T08:31:58;4.43;;;2.40;;
78563;SDS011;67856;47.754;19.088;2023-07-13T08:35:00;5.90;;;2.13;;
78563;SDS011;67856;47.754;19.088;2023-07-13T08:38:03;5.75;;;2.25;;
78563;SDS011;67856;47.754;19.088;2023-07-13T08:41:15;3.35;;;2.25;;
78563;SDS011;67856;47.754;19.088;2023-07-13T08:44:36;5.55;;;2.33;;
78563;SDS011;67856;47.754;19.088;2023-07-13T08:48:30;8.40;;;2.60;;
78563;SDS011;67856;47.754;19.088;2023-07-13T08:57:36;6.63;;;2.50;;
78563;SDS011;67856;47.754;19.088;2023-07-13T09:01:23;8.32;;;2.38;;
78563;SDS011;67856;47.754;19.088;2023-07-13T09:04:28;4.47;;;2.50;;
78563;SDS011;67856;47.754;19.088;2023-07-13T09:11:04;4.97;;;2.92;;
78563;SDS011;67856;47.754;19.088;2023-07-13T09:14:21;6.38;;;2.53;;
78563;SDS011;67856;47.754;19.088;2023-07-13T09:17:41;5.50;;;2.60;;
78563;SDS011;67856;47.754;19.088;2023-07-13T09:20:50;6.00;;;2.67;;
78563;SDS011;67856;47.754;19.088;2023-07-13T09:24:27;5.60;;;2.70;;
78563;SDS011;67856;47.754;19.088;2023-07-13T09:27:29;8.85;;;2.90;;
78563;SDS011;67856;47.754;19.088;2023-07-13T09:30:36;4.15;;;2.70;;
78563;SDS011;67856;47.754;19.088;2023-07-13T09:34:01;4.95;;;2.55;;
78563;SDS011;67856;47.754;19.088;2023-07-13T09:37:04;6.10;;;2.75;;
78563;SDS011;67856;47.754;19.088;2023-07-13T09:40:10;5.13;;;2.53;;
78563;SDS011;67856;47.754;19.088;2023-07-13T09:43:25;6.45;;;2.67;;
78563;SDS011;67856;47.754;19.088;2023-07-13T09:46:27;5.47;;;2.72;;
78563;SDS011;67856;47.754;19.088;2023-07-13T09:49:34;5.20;;;2.72;;
78563;SDS011;67856;47.754;19.088;2023-07-13T09:52:45;11.35;;;3.05;;
78563;SDS011;67856;47.754;19.088;2023-07-13T09:55:48;8.60;;;3.20;;
78563;SDS011;67856;47.754;19.088;2023-07-13T09:58:55;14.93;;;3.75;;
78563;SDS011;67856;47.754;19.088;2023-07-13T10:01:59;13.32;;;3.70;;
78563;SDS011;67856;47.754;19.088;2023-07-13T10:05:03;13.70;;;3.25;;
78563;SDS011;67856;47.754;19.088;2023-07-13T10:08:21;11.55;;;3.30;;
78563;SDS011;67856;47.754;19.088;2023-07-13T10:11:29;5.70;;;3.50;;
78563;SDS011;67856;47.754;19.088;2023-07-13T10:14:32;6.78;;;2.97;;
78563;SDS011;67856;47.754;19.088;2023-07-13T10:17:35;4.97;;;3.03;;
78563;SDS011;67856;47.754;19.088;2023-07-13T10:20:37;6.00;;;3.13;;
78563;SDS011;67856;47.754;19.088;2023-07-13T10:23:41;6.28;;;3.13;;
78563;SDS011;67856;47.754;19.088;2023-07-13T10:27:29;11.07;;;3.10;;
78563;SDS011;67856;47.754;19.088;2023-07-13T10:30:17;6.90;;;3.00;;
78563;SDS011;67856;47.754;19.088;2023-07-13T10:33:30;6.43;;;3.33;;
78563;SDS011;67856;47.754;19.088;2023-07-13T10:36:34;3.83;;;3.20;;
78563;SDS011;67856;47.754;19.088;2023-07-13T10:39:41;7.03;;;3.47;;
78563;SDS011;67856;47.754;19.088;2023-07-13T10:42:44;4.90;;;3.10;;
78563;SDS011;67856;47.754;19.088;2023-07-13T10:45:50;7.55;;;3.40;;
78563;SDS011;67856;47.754;19.088;2023-07-13T10:48:58;9.70;;;3.47;;
78563;SDS011;67856;47.754;19.088;2023-07-13T10:52:03;9.02;;;3.53;;
78563;SDS011;67856;47.754;19.088;2023-07-13T10:55:11;5.25;;;3.20;;
78563;SDS011;67856;47.754;19.088;2023-07-13T10:58:41;9.27;;;3.53;;
78563;SDS011;67856;47.754;19.088;2023-07-13T11:04:51;6.93;;;3.30;;
78563;SDS011;67856;47.754;19.088;2023-07-13T11:07:56;4.97;;;2.90;;
78563;SDS011;67856;47.754;19.088;2023-07-13T11:15:00;5.63;;;3.30;;
78563;SDS011;67856;47.754;19.088;2023-07-13T11:18:12;8.40;;;3.30;;
78563;SDS011;67856;47.754;19.088;2023-07-13T11:21:23;7.28;;;3.25;;
78563;SDS011;67856;47.754;19.088;2023-07-13T11:24:52;5.93;;;3.15;;
78563;SDS011;67856;47.754;19.088;2023-07-13T11:28:04;5.47;;;3.20;;
78563;SDS011;67856;47.754;19.088;2023-07-13T11:31:13;6.07;;;3.10;;
78563;SDS011;67856;47.754;19.088;2023-07-13T11:34:18;5.40;;;2.88;;
78563;SDS011;67856;47.754;19.088;2023-07-13T11:37:27;4.55;;;2.80;;
78563;SDS011;67856;47.754;19.088;2023-07-13T11:40:31;6.15;;;3.00;;
78563;SDS011;67856;47.754;19.088;2023-07-13T11:43:34;4.93;;;3.30;;
78563;SDS011;67856;47.754;19.088;2023-07-13T11:46:36;4.67;;;2.80;;
78563;SDS011;67856;47.754;19.088;2023-07-13T11:49:43;7.78;;;2.92;;
78563;SDS011;67856;47.754;19.088;2023-07-13T11:52:46;5.40;;;3.10;;
78563;SDS011;67856;47.754;19.088;2023-07-13T11:55:52;3.70;;;2.63;;
78563;SDS011;67856;47.754;19.088;2023-07-13T11:58:55;4.40;;;3.00;;
78563;SDS011;67856;47.754;19.088;2023-07-13T12:01:58;4.17;;;3.00;;
78563;SDS011;67856;47.754;19.088;2023-07-13T12:05:02;5.20;;;3.00;;
78563;SDS011;67856;47.754;19.088;2023-07-13T12:08:09;4.72;;;3.03;;
78563;SDS011;67856;47.754;19.088;2023-07-13T12:11:24;4.18;;;2.80;;
78563;SDS011;67856;47.754;19.088;2023-07-13T12:14:27;4.18;;;3.00;;
78563;SDS011;67856;47.754;19.088;2023-07-13T12:17:30;4.37;;;2.90;;
78563;SDS011;67856;47.754;19.088;2023-07-13T12:20:37;4.75;;;2.83;;
78563;SDS011;67856;47.754;19.088;2023-07-13T12:23:42;3.95;;;2.85;;
78563;SDS011;67856;47.754;19.088;2023-07-13T12:26:48;5.88;;;2.83;;
78563;SDS011;67856;47.754;19.088;2023-07-13T12:30:36;4.60;;;2.85;;
78563;SDS011;67856;47.754;19.088;2023-07-13T12:33:27;3.27;;;2.67;;
78563;SDS011;67856;47.754;19.088;2023-07-13T12:36:31;4.32;;;3.10;;
78563;SDS011;67856;47.754;19.088;2023-07-13T12:39:37;4.05;;;2.78;;
78563;SDS011;67856;47.754;19.088;2023-07-13T12:42:41;4.45;;;2.72;;
78563;SDS011;67856;47.754;19.088;2023-07-13T12:46:13;5.13;;;2.72;;
78563;SDS011;67856;47.754;19.088;2023-07-13T12:49:07;5.20;;;2.90;;
78563;SDS011;67856;47.754;19.088;2023-07-13T12:52:21;4.40;;;2.72;;
78563;SDS011;67856;47.754;19.088;2023-07-13T12:55:25;5.13;;;2.70;;
78563;SDS011;67856;47.754;19.088;2023-07-13T12:58:32;3.95;;;2.50;;
78563;SDS011;67856;47.754;19.088;2023-07-13T13:01:38;4.03;;;2.80;;
78563;SDS011;67856;47.754;19.088;2023-07-13T13:04:41;3.47;;;2.70;;
78563;SDS011;67856;47.754;19.088;2023-07-13T13:07:45;3.70;;;2.70;;
78563;SDS011;67856;47.754;19.088;2023-07-13T13:10:49;3.78;;;2.47;;
78563;SDS011;67856;47.754;19.088;2023-07-13T13:13:51;3.13;;;2.47;;
78563;SDS011;67856;47.754;19.088;2023-07-13T13:16:54;4.10;;;2.88;;
78563;SDS011;67856;47.754;19.088;2023-07-13T13:19:57;3.67;;;2.80;;
78563;SDS011;67856;47.754;19.088;2023-07-13T13:22:59;4.20;;;2.75;;
78563;SDS011;67856;47.754;19.088;2023-07-13T13:26:02;4.93;;;2.70;;
78563;SDS011;67856;47.754;19.088;2023-07-13T13:29:15;5.22;;;2.83;;
78563;SDS011;67856;47.754;19.088;2023-07-13T13:32:19;3.25;;;2.60;;
78563;SDS011;67856;47.754;19.088;2023-07-13T13:35:21;3.13;;;2.50;;
78563;SDS011;67856;47.754;19.088;2023-07-13T13:38:25;3.95;;;2.60;;
78563;SDS011;67856;47.754;19.088;2023-07-13T13:41:28;4.90;;;2.60;;
78563;SDS011;67856;47.754;19.088;2023-07-13T13:44:31;3.50;;;2.70;;
78563;SDS011;67856;47.754;19.088;2023-07-13T13:47:33;3.65;;;2.70;;
78563;SDS011;67856;47.754;19.088;2023-07-13T13:50:38;3.70;;;2.40;;
78563;SDS011;67856;47.754;19.088;2023-07-13T13:53:41;2.72;;;2.30;;
78563;SDS011;67856;47.754;19.088;2023-07-13T13:56:44;4.03;;;2.70;;
78563;SDS011;67856;47.754;19.088;2023-07-13T13:59:47;3.28;;;2.72;;
78563;SDS011;67856;47.754;19.088;2023-07-13T14:02:50;4.30;;;2.80;;
78563;SDS011;67856;47.754;19.088;2023-07-13T14:05:54;3.60;;;2.73;;
78563;SDS011;67856;47.754;19.088;2023-07-13T14:09:00;2.72;;;2.50;;
78563;SDS011;67856;47.754;19.088;2023-07-13T14:12:03;3.78;;;2.63;;
78563;SDS011;67856;47.754;19.088;2023-07-13T14:15:13;2.70;;;2.33;;
78563;SDS011;67856;47.754;19.088;2023-07-13T14:18:19;3.83;;;2.50;;
78563;SDS011;67856;47.754;19.088;2023-07-13T14:21:21;3.80;;;2.50;;
78563;SDS011;67856;47.754;19.088;2023-07-13T14:24:24;4.38;;;2.50;;
78563;SDS011;67856;47.754;19.088;2023-07-13T14:27:26;2.63;;;2.35;;
78563;SDS011;67856;47.754;19.088;2023-07-13T14:30:28;2.80;;;2.30;;
78563;SDS011;67856;47.754;19.088;2023-07-13T14:33:31;2.78;;;2.47;;
78563;SDS011;67856;47.754;19.088;2023-07-13T14:36:35;3.33;;;2.50;;
78563;SDS011;67856;47.754;19.088;2023-07-13T14:39:40;3.10;;;2.30;;
78563;SDS011;67856;47.754;19.088;2023-07-13T14:42:45;3.13;;;2.40;;
78563;SDS011;67856;47.754;19.088;2023-07-13T14:45:49;3.92;;;2.50;;
78563;SDS011;67856;47.754;19.088;2023-07-13T14:48:53;2.72;;;2.47;;
78563;SDS011;67856;47.754;19.088;2023-07-13T14:52:02;3.63;;;2.40;;
78563;SDS011;67856;47.754;19.088;2023-07-13T14:55:14;4.80;;;2.55;;
78563;SDS011;67856;47.754;19.088;2023-07-13T14:58:18;4.38;;;2.60;;
78563;SDS011;67856;47.754;19.088;2023-07-13T15:01:20;2.95;;;2.60;;
78563;SDS011;67856;47.754;19.088;2023-07-13T15:04:24;3.17;;;2.30;;
78563;SDS011;67856;47.754;19.088;2023-07-13T15:07:26;3.80;;;2.40;;
78563;SDS011;67856;47.754;19.088;2023-07-13T15:10:30;3.35;;;2.42;;
78563;SDS011;67856;47.754;19.088;2023-07-13T15:13:33;4.10;;;2.40;;
78563;SDS011;67856;47.754;19.088;2023-07-13T15:16:36;3.50;;;2.35;;
78563;SDS011;67856;47.754;19.088;2023-07-13T15:19:39;3.42;;;2.38;;
78563;SDS011;67856;47.754;19.088;2023-07-13T15:22:42;3.53;;;2.27;;
78563;SDS011;67856;47.754;19.088;2023-07-13T15:25:44;3.45;;;2.28;;
78563;SDS011;67856;47.754;19.088;2023-07-13T15:28:48;3.13;;;2.30;;
78563;SDS011;67856;47.754;19.088;2023-07-13T15:31:50;3.15;;;2.40;;
78563;SDS011;67856;47.754;19.088;2023-07-13T15:34:53;2.75;;;2.30;;
78563;SDS011;67856;47.754;19.088;2023-07-13T15:37:55;4.30;;;2.43;;
78563;SDS011;67856;47.754;19.088;2023-07-13T15:40:57;3.05;;;2.20;;
78563;SDS011;67856;47.754;19.088;2023-07-13T15:44:00;2.60;;;2.30;;
78563;SDS011;67856;47.754;19.088;2023-07-13T15:47:11;3.75;;;2.20;;
78563;SDS011;67856;47.754;19.088;2023-07-13T15:50:16;4.22;;;2.40;;
78563;SDS011;67856;47.754;19.088;2023-07-13T15:53:29;3.57;;;2.40;;
78563;SDS011;67856;47.754;19.088;2023-07-13T15:56:33;2.90;;;2.20;;
78563;SDS011;67856;47.754;19.088;2023-07-13T15:59:37;2.63;;;2.30;;
78563;SDS011;67856;47.754;19.088;2023-07-13T16:02:39;2.97;;;2.20;;
78563;SDS011;67856;47.754;19.088;2023-07-13T16:05:43;2.85;;;2.30;;
78563;SDS011;67856;47.754;19.088;2023-07-13T16:08:46;2.63;;;2.20;;
78563;SDS011;67856;47.754;19.088;2023-07-13T16:11:49;3.08;;;2.30;;
78563;SDS011;67856;47.754;19.088;2023-07-13T16:14:53;3.63;;;2.42;;
78563;SDS011;67856;47.754;19.088;2023-07-13T16:17:55;2.90;;;2.10;;
78563;SDS011;67856;47.754;19.088;2023-07-13T16:20:58;3.90;;;2.28;;
78563;SDS011;67856;47.754;19.088;2023-07-13T16:24:01;2.60;;;2.30;;
78563;SDS011;67856;47.754;19.088;2023-07-13T16:27:08;2.22;;;2.03;;
78563;SDS011;67856;47.754;19.088;2023-07-13T16:30:12;2.42;;;2.22;;
78563;SDS011;67856;47.754;19.088;2023-07-13T16:33:15;2.60;;;2.20;;
78563;SDS011;67856;47.754;19.088;2023-07-13T16:36:18;2.85;;;2.40;;
78563;SDS011;67856;47.754;19.088;2023-07-13T16:39:21;2.73;;;2.10;;
78563;SDS011;67856;47.754;19.088;2023-07-13T16:42:27;2.63;;;2.20;;
78563;SDS011;67856;47.754;19.088;2023-07-13T16:45:30;2.50;;;2.10;;
78563;SDS011;67856;47.754;19.088;2023-07-13T16:48:36;2.60;;;2.10;;
78563;SDS011;67856;47.754;19.088;2023-07-13T16:51:38;3.05;;;2.38;;
78563;SDS011;67856;47.754;19.088;2023-07-13T16:54:40;2.60;;;2.10;;
78563;SDS011;67856;47.754;19.088;2023-07-13T16:57:44;2.33;;;1.80;;
78563;SDS011;67856;47.754;19.088;2023-07-13T17:00:48;2.92;;;2.20;;
78563;SDS011;67856;47.754;19.088;2023-07-13T17:03:54;2.17;;;1.80;;
78563;SDS011;67856;47.754;19.088;2023-07-13T17:07:02;2.20;;;2.00;;
78563;SDS011;67856;47.754;19.088;2023-07-13T17:10:10;2.93;;;2.10;;
78563;SDS011;67856;47.754;19.088;2023-07-13T17:13:20;2.50;;;1.95;;
78563;SDS011;67856;47.754;19.088;2023-07-13T17:16:23;3.72;;;1.95;;
78563;SDS011;67856;47.754;19.088;2023-07-13T17:19:29;3.13;;;1.85;;
78563;SDS011;67856;47.754;19.088;2023-07-13T17:22:33;2.50;;;1.80;;
78563;SDS011;67856;47.754;19.088;2023-07-13T17:25:35;2.10;;;1.83;;
78563;SDS011;67856;47.754;19.088;2023-07-13T17:28:38;2.30;;;1.77;;
78563;SDS011;67856;47.754;19.088;2023-07-13T17:31:41;3.10;;;2.05;;
78563;SDS011;67856;47.754;19.088;2023-07-13T17:34:43;2.30;;;2.10;;
78563;SDS011;67856;47.754;19.088;2023-07-13T17:37:51;2.75;;;2.10;;
78563;SDS011;67856;47.754;19.088;2023-07-13T17:40:55;2.83;;;1.90;;
78563;SDS011;67856;47.754;19.088;2023-07-13T17:43:57;2.20;;;1.90;;
78563;SDS011;67856;47.754;19.088;2023-07-13T17:47:00;2.53;;;2.00;;
78563;SDS011;67856;47.754;19.088;2023-07-13T17:50:12;2.30;;;1.88;;
78563;SDS011;67856;47.754;19.088;2023-07-13T17:53:19;2.22;;;1.92;;
78563;SDS011;67856;47.754;19.088;2023-07-13T17:56:22;1.83;;;1.70;;
78563;SDS011;67856;47.754;19.088;2023-07-13T17:59:28;1.95;;;1.60;;
78563;SDS011;67856;47.754;19.088;2023-07-13T18:02:31;2.55;;;1.88;;
78563;SDS011;67856;47.754;19.088;2023-07-13T18:05:34;1.67;;;1.58;;
78563;SDS011;67856;47.754;19.088;2023-07-13T18:08:37;1.92;;;1.73;;
78563;SDS011;67856;47.754;19.088;2023-07-13T18:11:40;2.57;;;1.83;;
78563;SDS011;67856;47.754;19.088;2023-07-13T18:14:43;2.28;;;1.85;;
78563;SDS011;67856;47.754;19.088;2023-07-13T18:17:46;1.98;;;1.77;;
78563;SDS011;67856;47.754;19.088;2023-07-13T18:20:52;2.38;;;1.90;;
78563;SDS011;67856;47.754;19.088;2023-07-13T18:23:55;2.30;;;2.10;;
78563;SDS011;67856;47.754;19.088;2023-07-13T18:26:57;2.20;;;1.83;;
78563;SDS011;67856;47.754;19.088;2023-07-13T18:30:00;2.10;;;1.90;;
78563;SDS011;67856;47.754;19.088;2023-07-13T18:33:02;2.53;;;2.20;;
78563;SDS011;67856;47.754;19.088;2023-07-13T18:36:06;2.28;;;1.85;;
78563;SDS011;67856;47.754;19.088;2023-07-13T18:39:11;2.20;;;2.00;;
78563;SDS011;67856;47.754;19.088;2023-07-13T18:42:15;2.60;;;1.90;;
78563;SDS011;67856;47.754;19.088;2023-07-13T18:45:17;2.55;;;2.05;;
78563;SDS011;67856;47.754;19.088;2023-07-13T18:48:21;2.50;;;1.98;;
78563;SDS011;67856;47.754;19.088;2023-07-13T18:51:25;2.33;;;2.00;;